Estación de La Unión Norte

Ultimos registro cada 15 minutos 72
Estación Fecha / Hora Temperatura Humedad Lluvia Velocidad Dirección Radiación Presion
72 La Unión Norte 08-05-2026 17:45 10,6 74,8 0 0 184 4,4 1022
71 La Unión Norte 08-05-2026 17:30 11,5 70,7 0 0 177 8,1 1021,9
70 La Unión Norte 08-05-2026 17:15 11,9 70,8 0 0 187 10,6 1021,6
69 La Unión Norte 08-05-2026 17:00 12,4 70,5 0 0 188 16,9 1021,4
68 La Unión Norte 08-05-2026 16:45 13,4 69,6 0 0 194 105,6 1020,9
67 La Unión Norte 08-05-2026 16:30 14,5 68,8 0 0 192 149,4 1020,5
66 La Unión Norte 08-05-2026 16:15 15,1 69,9 0 0 188 199,4 1020,3
65 La Unión Norte 08-05-2026 16:00 12,6 75,1 0 0 184 281,9 1019,9
64 La Unión Norte 08-05-2026 15:45 15,5 70,9 0 0 190 274,4 1019,9
63 La Unión Norte 08-05-2026 15:30 13,6 77 0 0 173 321,9 1019,7
62 La Unión Norte 08-05-2026 15:15 12 78,6 0 0 190 58,1 1019,8
61 La Unión Norte 08-05-2026 15:00 12,3 77,6 0 0 181 106,9 1019,6
60 La Unión Norte 08-05-2026 14:45 12,3 78,9 0 0 188 120,6 1019,4
59 La Unión Norte 08-05-2026 14:30 12,5 78,8 0 0 191 160,6 1019,4
58 La Unión Norte 08-05-2026 14:15 11,6 81,4 0 0 191 258,1 1019,2
57 La Unión Norte 08-05-2026 14:00 12,5 81,7 0 0 192 170,6 1018,9
56 La Unión Norte 08-05-2026 13:45 10,7 85,5 0 0 198 196,9 1018,9
55 La Unión Norte 08-05-2026 13:30 10,3 85,5 0 0 187 119,4 1019,3
54 La Unión Norte 08-05-2026 13:15 10,3 86,7 0 0 187 106,9 1019,4
53 La Unión Norte 08-05-2026 13:00 10,4 87,1 0 0 190 98,1 1019,4
52 La Unión Norte 08-05-2026 12:45 10,7 90,3 0 0 192 189,4 1019,3
51 La Unión Norte 08-05-2026 12:30 9,7 92,8 0 0 192 89,4 1019,7
50 La Unión Norte 08-05-2026 12:15 9,6 93,8 0 0 190 186,9 1019,5
49 La Unión Norte 08-05-2026 12:00 8,9 94,6 0 0,5 225 63,1 1019,7
48 La Unión Norte 08-05-2026 11:45 9,1 95,3 0 0 187 26,9 1019,7
47 La Unión Norte 08-05-2026 11:30 9,6 96,1 0 0,5 192 84,4 1019,3
46 La Unión Norte 08-05-2026 11:15 9,6 97,6 0 0 190 466,9 1019
45 La Unión Norte 08-05-2026 11:00 9,2 97,9 0 0 187 108,1 1019
44 La Unión Norte 08-05-2026 10:45 9,1 98,3 0 0 185 164,4 1019,1
43 La Unión Norte 08-05-2026 10:30 8,9 98,5 0 0 191 126,9 1019,1
42 La Unión Norte 08-05-2026 10:15 8,5 98,5 0 0 225 60,6 1018,9
41 La Unión Norte 08-05-2026 10:00 8,4 98,3 0 0 192 80,6 1018,8
40 La Unión Norte 08-05-2026 09:45 8,3 98,4 0,2 0 191 54,4 1018,7
39 La Unión Norte 08-05-2026 09:30 8,1 98,6 0 0 192 60,6 1018,5
38 La Unión Norte 08-05-2026 09:15 7,8 98,5 0 0 199 39,4 1018,3
37 La Unión Norte 08-05-2026 09:00 7,7 98,4 0,2 0 204 23,1 1018,2
36 La Unión Norte 08-05-2026 08:45 7,6 98,4 0 0 209 14,4 1017,8
35 La Unión Norte 08-05-2026 08:30 7,6 98,2 0 0 209 11,9 1017,5
34 La Unión Norte 08-05-2026 08:15 7,4 98,1 0 0 209 8,1 1017,2
33 La Unión Norte 08-05-2026 08:00 7,5 98 0 0 209 1,9 1017,2
32 La Unión Norte 08-05-2026 07:45 7,6 98 0 0 209 0,6 1017,4
31 La Unión Norte 08-05-2026 07:30 7,6 97,8 0,2 0 209 0,6 1017,2
30 La Unión Norte 08-05-2026 07:15 7,5 97,8 0 0 236 0,6 1017,1
29 La Unión Norte 08-05-2026 07:00 7,6 97,6 0 0 277 0,6 1017
28 La Unión Norte 08-05-2026 06:45 7,6 97,5 0 0 329 0,6 1016,8
27 La Unión Norte 08-05-2026 06:30 7,6 97,3 0 0 4 0,6 1016,5
26 La Unión Norte 08-05-2026 06:15 7,6 97,2 0 0 34 0,6 1016,3
25 La Unión Norte 08-05-2026 06:00 7,6 97,1 0 0 28 0,6 1015,9
24 La Unión Norte 08-05-2026 05:45 7,7 96,9 0 0 24 0,6 1015,6
23 La Unión Norte 08-05-2026 05:30 7,7 96,9 0 0 10 0,6 1015,4
22 La Unión Norte 08-05-2026 05:15 7,7 96,7 0,2 0 6 0,6 1015,5
21 La Unión Norte 08-05-2026 05:00 7,7 96,7 0 0 4 0,6 1015,2
20 La Unión Norte 08-05-2026 04:45 7,7 96,7 0 0 0 0,6 1015,4
19 La Unión Norte 08-05-2026 04:30 7,7 96,7 0 0 3 0,6 1015,4
18 La Unión Norte 08-05-2026 04:15 7,7 96,6 0 0 14 0,6 1015,4
17 La Unión Norte 08-05-2026 04:00 7,7 96,6 0 0 15 0,6 1015,2
16 La Unión Norte 08-05-2026 03:45 7,6 96,4 0 0 13 0,6 1015,1
15 La Unión Norte 08-05-2026 03:30 7,6 96,4 0 0 10 0,6 1015,4
14 La Unión Norte 08-05-2026 03:15 7,5 96,3 0 0 0 0,6 1015,7
13 La Unión Norte 08-05-2026 03:00 7,5 96,2 0,2 0 0 0,6 1015,7
12 La Unión Norte 08-05-2026 02:45 7,5 96,1 0 0 24 0,6 1015,4
11 La Unión Norte 08-05-2026 02:30 7,4 96,1 0,4 0 11 0,6 1015,5
10 La Unión Norte 08-05-2026 02:15 7,4 96 0 0 0 0,6 1015,5
9 La Unión Norte 08-05-2026 02:00 7,4 96 0 0 358 0,6 1015,3
8 La Unión Norte 08-05-2026 01:45 7,3 96 0 0 355 0,6 1015,4
7 La Unión Norte 08-05-2026 01:30 7,3 95,9 0 0 358 0,6 1015,8
6 La Unión Norte 08-05-2026 01:15 7,2 95,8 0 0 1 0,6 1016,3
5 La Unión Norte 08-05-2026 01:00 7,2 95,7 0 0 357 0,6 1016,6
4 La Unión Norte 08-05-2026 00:45 7,2 95,7 0,2 0 358 0,6 1016,6
3 La Unión Norte 08-05-2026 00:30 7,2 95,6 0,6 0 354 0,6 1016,9
2 La Unión Norte 08-05-2026 00:15 7,3 95,4 0,2 0 1 0,6 1017,2
1 La Unión Norte 08-05-2026 00:00 7,3 95,3 0 0 355 0,6 1017,3